EGBB/BHX METAR and TAF weather

Enter ICAO airport designator
Station Type Date Time Source
EGBB METAR 2018/12/10 19:20 UTC NOAA

EGBB 101920Z 22002KT CAVOK 07/05 Q1027


Station Type Date Time Source
EGBB Decoded METAR 2018/12/10 19:20 UTC NOAA

Birmingham / Airport, United Kingdom (EGBB) 52-27N 001-44W 0M
Dec 10, 2018 - 02:20 PM EST / 2018.12.10 1920 UTC
Wind: from the SW (220 degrees) at 2 MPH (2 KT):0
Visibility: greater than 7 mile(s):0
Temperature: 44 F (7 C)
Dew Point: 41 F (5 C)
Relative Humidity: 87%
Pressure (altimeter): 30.33 in. Hg (1027 hPa)
ob: EGBB 101920Z 22002KT CAVOK 07/05 Q1027
cycle: 19

Station Type Date Time Source
EGBB TAF 2018/12/10 18:36 UTC NOAA

TAF
AMD TAF
AMD EGBB 101833Z 1018/1118 29006KT 9999 SCT025 PROB30 1020/1110 5000 BR PROB40
TEMPO 1102/1110 BKN003
BECMG 1107/1110 16010KT PROB30
TEMPO 1110/1113 SCT006 BKN010


Example: see airport list